createdAt,value
2023-01-04T00:01:30.242Z,2.11
2023-01-04T00:03:58.235Z,2.10
2023-01-04T00:06:25.536Z,2.13
2023-01-04T00:08:54.272Z,2.13
2023-01-04T00:11:23.429Z,2.15
2023-01-04T00:13:54.112Z,2.15
2023-01-04T00:16:25.092Z,2.17
2023-01-04T00:18:54.505Z,2.07
2023-01-04T00:21:27.473Z,2.14
2023-01-04T00:23:58.271Z,2.10
2023-01-04T00:26:28.200Z,2.25
2023-01-04T00:28:58.854Z,2.34
2023-01-04T00:31:28.107Z,2.29
2023-01-04T00:34:01.490Z,2.35
2023-01-04T00:36:29.709Z,2.20
2023-01-04T00:39:10.204Z,2.18
2023-01-04T00:42:00.926Z,2.32
2023-01-04T00:44:30.499Z,2.34
2023-01-04T00:46:59.410Z,2.27
2023-01-04T00:49:28.022Z,2.12
2023-01-04T00:51:56.229Z,2.02
2023-01-04T00:54:24.629Z,2.09
2023-01-04T00:56:52.132Z,2.10
2023-01-04T00:59:21.171Z,2.02
2023-01-04T01:01:49.161Z,2.05
2023-01-04T01:04:19.356Z,2.03
2023-01-04T01:06:47.314Z,2.09
2023-01-04T01:09:15.998Z,2.10
2023-01-04T01:11:44.011Z,2.18
2023-01-04T01:14:21.738Z,2.29
2023-01-04T01:16:58.389Z,2.27
2023-01-04T01:19:29.031Z,2.29
2023-01-04T01:21:58.018Z,2.25
2023-01-04T01:24:26.651Z,2.17
2023-01-04T01:26:54.946Z,2.18
2023-01-04T01:29:22.611Z,2.10
2023-01-04T01:31:49.966Z,1.99
2023-01-04T01:34:17.586Z,1.96
2023-01-04T01:36:44.863Z,1.79
2023-01-04T01:39:12.352Z,1.79
2023-01-04T01:41:39.660Z,1.65
2023-01-04T01:44:27.083Z,1.63
2023-01-04T01:46:55.466Z,1.57
2023-01-04T01:49:31.219Z,1.51
2023-01-04T01:52:02.363Z,1.55
2023-01-04T01:54:35.466Z,1.61
2023-01-04T01:57:06.277Z,1.54
2023-01-04T01:59:36.351Z,1.41
2023-01-04T02:02:03.670Z,1.29
2023-01-04T02:04:31.481Z,1.28
2023-01-04T02:06:59.882Z,1.25
2023-01-04T02:09:27.390Z,1.13
2023-01-04T02:11:57.316Z,1.05
2023-01-04T02:14:28.795Z,0.99
2023-01-04T02:17:06.458Z,0.79
2023-01-04T02:19:57.255Z,0.84
2023-01-04T02:22:40.792Z,0.64
2023-01-04T02:25:22.543Z,0.65
2023-01-04T02:27:55.552Z,0.60
2023-01-04T02:30:53.113Z,0.55
2023-01-04T02:33:39.123Z,0.48
2023-01-04T02:36:11.856Z,0.32
2023-01-04T02:38:54.891Z,0.33
2023-01-04T02:41:36.393Z,0.33
2023-01-04T02:44:44.701Z,0.22
2023-01-04T02:47:17.445Z,0.25
2023-01-04T02:50:05.330Z,0.14
2023-01-04T02:52:33.866Z,0.09
2023-01-04T02:55:03.079Z,0.10
2023-01-04T02:57:40.859Z,0.18
2023-01-04T03:00:24.717Z,0.08
2023-01-04T03:03:43.834Z,0.23
2023-01-04T03:06:32.965Z,0.03
2023-01-04T03:09:12.429Z,0.15
2023-01-04T03:12:13.508Z,0.12
2023-01-04T03:14:50.932Z,0.14
2023-01-04T03:17:22.627Z,0.01
2023-01-04T03:19:56.008Z,0.01
2023-01-04T03:23:05.019Z,0.02
2023-01-04T03:25:58.164Z,-0.01
2023-01-04T03:28:47.294Z,-0.09
2023-01-04T03:31:40.491Z,0.06
2023-01-04T03:34:26.729Z,-0.02
2023-01-04T03:37:12.918Z,0.07
2023-01-04T03:39:58.588Z,0.01
2023-01-04T03:43:03.622Z,0.08
2023-01-04T03:45:55.537Z,-0.05
2023-01-04T03:48:32.659Z,-0.16
2023-01-04T03:51:15.201Z,-0.30
2023-01-04T03:54:07.003Z,-0.44
2023-01-04T03:56:37.709Z,-0.64
2023-01-04T03:59:05.774Z,-0.80
2023-01-04T04:01:33.588Z,-0.90
2023-01-04T04:04:20.050Z,-1.06
2023-01-04T04:07:06.225Z,-1.02
2023-01-04T04:09:33.819Z,-0.93
2023-01-04T04:12:01.071Z,-0.88
2023-01-04T04:14:28.650Z,-0.82
2023-01-04T04:16:56.216Z,-0.80
2023-01-04T04:19:24.001Z,-0.92
2023-01-04T04:21:51.265Z,-0.85
2023-01-04T04:24:21.808Z,-0.90
2023-01-04T04:26:49.369Z,-1.03
2023-01-04T04:29:18.155Z,-1.17
2023-01-04T04:31:45.362Z,-1.31
2023-01-04T04:34:13.094Z,-1.40
2023-01-04T04:36:40.346Z,-1.65
2023-01-04T04:39:07.913Z,-1.69
2023-01-04T04:41:53.191Z,-1.74
2023-01-04T04:44:21.220Z,-1.76
2023-01-04T04:46:49.231Z,-1.89
2023-01-04T04:49:17.907Z,-1.91
2023-01-04T04:51:46.282Z,-1.98
2023-01-04T04:54:22.102Z,-1.90
2023-01-04T04:56:50.013Z,-2.00
2023-01-04T04:59:17.804Z,-2.10
2023-01-04T05:01:45.478Z,-2.12
2023-01-04T05:04:17.218Z,-2.18
2023-01-04T05:06:44.976Z,-2.28
2023-01-04T05:09:14.057Z,-2.27
2023-01-04T05:12:00.645Z,-2.37
2023-01-04T05:14:28.250Z,-2.39
2023-01-04T05:16:56.434Z,-2.45
2023-01-04T05:19:24.051Z,-2.51
2023-01-04T05:21:51.198Z,-2.49
2023-01-04T05:24:18.730Z,-2.61
2023-01-04T05:26:45.870Z,-2.61
2023-01-04T05:29:33.414Z,-2.59
2023-01-04T05:32:00.709Z,-2.55
2023-01-04T05:34:28.210Z,-2.50
2023-01-04T05:36:55.407Z,-2.50
2023-01-04T05:39:22.955Z,-2.53
2023-01-04T05:42:08.745Z,-2.52
2023-01-04T05:44:36.283Z,-2.42
2023-01-04T05:47:03.545Z,-2.40
2023-01-04T05:49:31.168Z,-2.33
2023-01-04T05:51:58.351Z,-2.28
2023-01-04T05:54:25.845Z,-2.24
2023-01-04T05:56:53.016Z,-2.21
2023-01-04T05:59:20.650Z,-2.19
2023-01-04T06:01:48.022Z,-2.21
2023-01-04T06:04:15.631Z,-2.16
2023-01-04T06:06:42.867Z,-2.16
2023-01-04T06:09:10.400Z,-2.20
2023-01-04T06:11:37.752Z,-2.11
2023-01-04T06:14:05.252Z,-2.08
2023-01-04T06:16:32.800Z,-2.03
2023-01-04T06:19:01.185Z,-2.12
2023-01-04T06:21:28.389Z,-1.94
2023-01-04T06:23:56.284Z,-1.94
2023-01-04T06:26:24.736Z,-1.97
2023-01-04T06:28:52.296Z,-1.94
2023-01-04T06:31:19.745Z,-2.08
2023-01-04T06:33:47.306Z,-2.02
2023-01-04T06:36:20.107Z,-2.09
2023-01-04T06:38:49.138Z,-2.13
2023-01-04T06:41:18.594Z,-2.07
2023-01-04T06:43:46.182Z,-2.12
2023-01-04T06:46:13.487Z,-2.01
2023-01-04T06:48:41.367Z,-2.12
2023-01-04T06:51:08.571Z,-1.99
2023-01-04T06:53:37.444Z,-1.99
2023-01-04T06:56:09.447Z,-1.92
2023-01-04T06:58:38.324Z,-1.86
2023-01-04T07:01:06.528Z,-1.89
2023-01-04T07:03:34.182Z,-1.93
2023-01-04T07:06:04.484Z,-2.09
2023-01-04T07:08:32.776Z,-1.99
2023-01-04T07:10:59.994Z,-2.02
2023-01-04T07:13:29.044Z,-1.95
2023-01-04T07:15:56.560Z,-1.94
2023-01-04T07:18:24.165Z,-1.91
2023-01-04T07:20:51.499Z,-2.01
2023-01-04T07:23:19.214Z,-1.88
2023-01-04T07:25:46.496Z,-1.86
2023-01-04T07:28:33.952Z,-1.92
2023-01-04T07:31:05.808Z,-1.78
2023-01-04T07:33:33.431Z,-1.89
2023-01-04T07:36:06.045Z,-1.74
2023-01-04T07:38:36.584Z,-1.74
2023-01-04T07:41:04.881Z,-1.77
2023-01-04T07:43:32.645Z,-1.76
2023-01-04T07:46:02.539Z,-1.76
2023-01-04T07:48:30.170Z,-1.71
2023-01-04T07:50:57.683Z,-1.67
2023-01-04T07:53:25.444Z,-1.82
2023-01-04T07:55:57.705Z,-1.87
2023-01-04T07:58:26.672Z,-1.91
2023-01-04T08:00:53.883Z,-1.98
2023-01-04T08:03:21.910Z,-1.90
2023-01-04T08:05:49.094Z,-1.84
2023-01-04T08:08:16.795Z,-1.70
2023-01-04T08:10:43.930Z,-1.56
2023-01-04T08:13:11.522Z,-1.48
2023-01-04T08:15:38.672Z,-1.32
2023-01-04T08:18:07.247Z,-1.26
2023-01-04T08:20:34.422Z,-1.18
2023-01-04T08:23:01.909Z,-1.18
2023-01-04T08:25:29.276Z,-1.16
2023-01-04T08:27:56.870Z,-1.11
2023-01-04T08:30:24.015Z,-1.14
2023-01-04T08:32:53.790Z,-1.09
2023-01-04T08:35:21.478Z,-1.01
2023-01-04T08:37:49.173Z,-1.02
2023-01-04T08:40:16.584Z,-1.06
2023-01-04T08:42:44.184Z,-1.09
2023-01-04T08:45:11.812Z,-1.10
2023-01-04T08:47:39.338Z,-1.03
2023-01-04T08:50:10.828Z,-0.98
2023-01-04T08:52:38.988Z,-0.77
2023-01-04T08:55:12.310Z,-0.76
2023-01-04T08:57:40.975Z,-0.66
2023-01-04T09:00:09.570Z,-0.76
2023-01-04T09:02:37.189Z,-0.84
2023-01-04T09:05:05.083Z,-0.65
2023-01-04T09:07:33.028Z,-0.60
2023-01-04T09:10:03.231Z,-0.65
2023-01-04T09:12:30.809Z,-0.63
2023-01-04T09:14:57.923Z,-0.70
2023-01-04T09:17:25.758Z,-0.60
2023-01-04T09:19:52.908Z,-0.60
2023-01-04T09:22:20.506Z,-0.37
2023-01-04T09:24:47.694Z,-0.15
2023-01-04T09:27:15.198Z,0.07
2023-01-04T09:29:42.336Z,0.43
2023-01-04T09:32:16.152Z,0.66
2023-01-04T09:34:45.386Z,0.95
2023-01-04T09:37:12.934Z,1.29
2023-01-04T09:39:40.093Z,1.47
2023-01-04T09:42:40.798Z,1.94
2023-01-04T09:45:25.727Z,2.35
2023-01-04T09:48:11.357Z,2.68
2023-01-04T09:50:44.689Z,2.93
2023-01-04T09:53:39.547Z,3.34
2023-01-04T09:56:29.862Z,3.76
2023-01-04T09:58:59.629Z,4.38
2023-01-04T10:01:41.586Z,5.08
2023-01-04T10:04:28.342Z,5.65
2023-01-04T10:07:00.957Z,6.07
2023-01-04T10:09:32.541Z,6.54
2023-01-04T10:12:18.608Z,7.28
2023-01-04T10:14:46.054Z,7.55
2023-01-04T10:18:34.019Z,8.00
2023-01-04T10:21:23.215Z,8.71
2023-01-04T10:23:27.202Z,9.12
2023-01-04T10:25:58.897Z,9.46
2023-01-04T10:29:03.679Z,9.99
2023-01-04T10:31:40.832Z,10.37
2023-01-04T10:34:30.035Z,10.59
2023-01-04T10:37:23.799Z,10.82
2023-01-04T10:39:55.346Z,11.15
2023-01-04T10:42:36.970Z,11.37
2023-01-04T10:45:49.329Z,11.60
2023-01-04T10:48:35.095Z,12.09
2023-01-04T10:51:10.530Z,12.35
2023-01-04T10:53:48.585Z,12.38
2023-01-04T10:56:40.596Z,12.66
2023-01-04T10:59:19.865Z,12.79
2023-01-04T11:02:02.614Z,12.92
2023-01-04T11:04:40.824Z,12.94
2023-01-04T11:07:16.618Z,13.02
2023-01-04T11:10:21.713Z,13.14
2023-01-04T11:12:49.113Z,13.16
2023-01-04T11:15:16.673Z,13.25
2023-01-04T11:17:44.349Z,13.16
2023-01-04T11:20:12.523Z,13.13
2023-01-04T11:22:45.618Z,13.38
2023-01-04T11:25:36.811Z,13.36
2023-01-04T11:28:07.338Z,13.38
2023-01-04T11:30:47.009Z,13.23
2023-01-04T11:33:18.466Z,13.24
2023-01-04T11:35:59.396Z,13.27
2023-01-04T11:38:29.915Z,13.37
2023-01-04T11:41:06.556Z,13.15
2023-01-04T11:43:39.687Z,13.10
2023-01-04T11:46:13.487Z,13.11
2023-01-04T11:48:43.981Z,13.22
2023-01-04T11:51:37.258Z,13.43
2023-01-04T11:54:12.002Z,13.50
2023-01-04T11:56:40.880Z,13.67
2023-01-04T11:59:25.124Z,13.59
2023-01-04T12:02:42.227Z,13.29
2023-01-04T12:05:28.193Z,13.09
2023-01-04T12:07:59.101Z,12.86
2023-01-04T12:10:28.327Z,12.80
2023-01-04T12:12:59.371Z,12.82
2023-01-04T12:16:10.920Z,12.93
2023-01-04T12:18:42.344Z,12.86
2023-01-04T12:21:22.246Z,12.72
2023-01-04T12:23:50.154Z,12.37
2023-01-04T12:26:18.674Z,12.06
2023-01-04T12:28:54.132Z,11.53
2023-01-04T12:31:22.086Z,10.82
2023-01-04T12:33:57.975Z,9.85
2023-01-04T12:36:39.932Z,9.57
2023-01-04T12:39:16.009Z,9.51
2023-01-04T12:42:01.576Z,9.46
2023-01-04T12:44:40.818Z,9.38
2023-01-04T12:47:38.645Z,9.09
2023-01-04T12:50:13.733Z,8.94
2023-01-04T12:55:43.833Z,8.47
2023-01-04T12:58:58.144Z,8.26
2023-01-04T13:01:26.635Z,8.08
2023-01-04T13:04:05.703Z,7.91
2023-01-04T13:06:46.213Z,7.75
2023-01-04T13:09:24.812Z,7.62
2023-01-04T13:12:21.115Z,7.59
2023-01-04T13:14:53.646Z,7.44
2023-01-04T13:17:24.117Z,7.05
2023-01-04T13:19:51.645Z,6.84
2023-01-04T13:22:28.928Z,6.64
2023-01-04T13:24:59.549Z,6.56
2023-01-04T13:27:27.928Z,6.40
2023-01-04T13:29:55.605Z,6.36
2023-01-04T13:32:26.553Z,6.42
2023-01-04T13:35:15.202Z,6.44
2023-01-04T13:37:45.808Z,6.45
2023-01-04T13:40:34.555Z,6.46
2023-01-04T13:43:20.869Z,6.46
2023-01-04T13:46:13.049Z,6.44
2023-01-04T13:48:44.447Z,6.33
2023-01-04T13:51:29.242Z,6.26
2023-01-04T13:54:01.921Z,6.20
2023-01-04T13:56:32.927Z,6.10
2023-01-04T13:59:01.480Z,6.06
2023-01-04T14:01:33.049Z,5.89
2023-01-04T14:04:14.052Z,5.78
2023-01-04T14:06:47.074Z,5.69
2023-01-04T14:09:18.717Z,5.67
2023-01-04T14:12:07.223Z,5.49
2023-01-04T14:14:47.054Z,5.45
2023-01-04T14:17:35.703Z,5.40
2023-01-04T14:20:16.045Z,5.34
2023-01-04T14:22:56.356Z,5.19
2023-01-04T14:25:37.172Z,5.17
2023-01-04T14:28:19.860Z,5.04
2023-01-04T14:30:51.971Z,5.06
2023-01-04T14:33:32.337Z,5.01
2023-01-04T14:36:15.201Z,4.83
2023-01-04T14:38:48.676Z,4.86
2023-01-04T14:41:33.044Z,4.85
2023-01-04T14:44:00.222Z,4.77
2023-01-04T14:46:30.331Z,4.79
2023-01-04T14:48:59.112Z,4.62
2023-01-04T14:51:38.212Z,4.65
2023-01-04T14:54:06.788Z,4.70
2023-01-04T14:56:34.971Z,4.67
2023-01-04T14:59:02.501Z,4.64
2023-01-04T15:01:30.252Z,4.46
2023-01-04T15:03:57.580Z,4.52
2023-01-04T15:06:25.233Z,4.54
2023-01-04T15:08:52.805Z,4.55
2023-01-04T15:11:20.454Z,4.51
2023-01-04T15:13:47.812Z,4.55
2023-01-04T15:16:18.304Z,4.53
2023-01-04T15:18:49.493Z,4.58
2023-01-04T15:21:17.504Z,4.69
2023-01-04T15:23:44.773Z,4.71
2023-01-04T15:26:12.869Z,4.71
2023-01-04T15:28:40.173Z,4.66
2023-01-04T15:31:10.974Z,4.58
2023-01-04T15:33:38.867Z,4.57
2023-01-04T15:36:10.951Z,4.57
2023-01-04T15:38:38.582Z,4.55
2023-01-04T15:41:32.639Z,4.56
2023-01-04T15:43:59.928Z,4.47
2023-01-04T15:46:28.030Z,4.55
2023-01-04T15:48:55.378Z,4.52
2023-01-04T15:51:23.165Z,4.55
2023-01-04T15:53:52.683Z,4.50
2023-01-04T15:56:20.638Z,4.55
2023-01-04T15:58:51.347Z,4.66
2023-01-04T16:01:19.016Z,4.71
2023-01-04T16:03:49.897Z,4.80
2023-01-04T16:06:21.402Z,4.78
2023-01-04T16:08:52.095Z,4.90
2023-01-04T16:11:22.201Z,4.88
2023-01-04T16:13:50.739Z,4.96
2023-01-04T16:16:19.938Z,4.97
2023-01-04T16:18:49.334Z,4.97
2023-01-04T16:21:21.043Z,5.07
2023-01-04T16:23:57.028Z,5.03
2023-01-04T16:26:27.789Z,5.14
2023-01-04T16:28:55.916Z,5.20
2023-01-04T16:31:23.609Z,5.16
2023-01-04T16:33:54.363Z,5.18
2023-01-04T16:36:22.336Z,5.20
2023-01-04T16:38:49.485Z,5.22
2023-01-04T16:41:21.002Z,5.26
2023-01-04T16:43:50.945Z,5.19
2023-01-04T16:46:25.568Z,5.25
2023-01-04T16:49:02.072Z,5.28
2023-01-04T16:51:32.528Z,5.35
2023-01-04T16:54:02.191Z,5.31
2023-01-04T16:56:30.066Z,5.33
2023-01-04T16:58:57.380Z,5.41
2023-01-04T17:01:28.018Z,5.29
2023-01-04T17:03:58.263Z,5.42
2023-01-04T17:06:31.144Z,5.40
2023-01-04T17:09:00.291Z,5.36
2023-01-04T17:14:17.769Z,5.32
2023-01-04T17:16:45.302Z,5.28
2023-01-04T17:19:12.556Z,5.09
2023-01-04T17:21:40.145Z,4.98
2023-01-04T17:24:07.446Z,4.87
2023-01-04T17:26:35.049Z,4.83
2023-01-04T17:29:03.479Z,4.75
2023-01-04T17:31:34.077Z,4.75
2023-01-04T17:34:01.889Z,4.68
2023-01-04T17:36:30.719Z,4.70
2023-01-04T17:39:01.903Z,4.78
2023-01-04T17:41:30.878Z,4.72
2023-01-04T17:44:01.172Z,4.81
2023-01-04T17:46:34.359Z,4.66
2023-01-04T17:51:54.680Z,4.62
2023-01-04T17:54:23.120Z,4.65
2023-01-04T17:56:50.584Z,4.56
2023-01-04T17:59:17.870Z,4.66
2023-01-04T18:01:45.574Z,4.64
2023-01-04T18:04:14.135Z,4.59
2023-01-04T18:06:41.811Z,4.59
2023-01-04T18:09:09.412Z,4.53
2023-01-04T18:11:37.872Z,4.47
2023-01-04T18:14:09.727Z,4.34
2023-01-04T18:16:56.977Z,4.33
2023-01-04T18:19:29.398Z,4.35
2023-01-04T18:21:57.955Z,4.21
2023-01-04T18:24:41.947Z,4.26
2023-01-04T18:27:23.899Z,4.27
2023-01-04T18:29:53.051Z,4.29
2023-01-04T18:32:21.722Z,4.33
2023-01-04T18:34:49.168Z,4.30
2023-01-04T18:37:18.946Z,4.37
2023-01-04T18:39:48.098Z,4.43
2023-01-04T18:42:16.407Z,4.37
2023-01-04T18:44:50.113Z,4.39
2023-01-04T18:47:21.703Z,4.36
2023-01-04T18:49:50.313Z,4.38
2023-01-04T18:52:18.945Z,4.39
2023-01-04T18:54:48.226Z,4.42
2023-01-04T18:57:15.937Z,4.27
2023-01-04T18:59:43.191Z,4.53
2023-01-04T19:02:16.384Z,4.69
2023-01-04T19:04:44.056Z,4.62
2023-01-04T19:07:11.733Z,4.53
2023-01-04T19:09:40.016Z,4.58
2023-01-04T19:12:07.584Z,4.48
2023-01-04T19:14:35.072Z,4.47
2023-01-04T19:17:03.377Z,4.49
2023-01-04T19:19:30.680Z,4.45
2023-01-04T19:21:58.417Z,4.59
2023-01-04T19:24:25.893Z,4.58
2023-01-04T19:26:55.332Z,4.74
2023-01-04T19:29:22.607Z,4.76
2023-01-04T19:31:50.481Z,4.79
2023-01-04T19:34:17.678Z,4.92
2023-01-04T19:36:45.268Z,4.96
2023-01-04T19:39:12.814Z,4.90
2023-01-04T19:41:40.437Z,4.94
2023-01-04T19:44:11.755Z,5.05
2023-01-04T19:46:40.783Z,5.05
2023-01-04T19:49:14.826Z,5.13
2023-01-04T19:51:45.587Z,5.18
2023-01-04T19:54:13.801Z,5.25
2023-01-04T19:56:41.578Z,5.32
2023-01-04T19:59:10.173Z,5.51
2023-01-04T20:01:37.951Z,5.61
2023-01-04T20:04:05.335Z,5.61
2023-01-04T20:06:33.280Z,5.76
2023-01-04T20:09:00.507Z,5.71
2023-01-04T20:11:28.254Z,5.77
2023-01-04T20:13:55.464Z,5.64
2023-01-04T20:16:23.156Z,5.72
2023-01-04T20:18:50.376Z,5.69
2023-01-04T20:21:18.049Z,5.66
2023-01-04T20:23:45.272Z,5.72
2023-01-04T20:26:16.102Z,5.74
2023-01-04T20:28:46.136Z,5.80
2023-01-04T20:31:18.143Z,5.83
2023-01-04T20:33:47.723Z,5.78
2023-01-04T20:36:22.780Z,5.90
2023-01-04T20:38:50.698Z,5.95
2023-01-04T20:41:21.089Z,5.83
2023-01-04T20:43:49.999Z,5.99
2023-01-04T20:46:27.451Z,6.00
2023-01-04T20:48:55.280Z,6.03
2023-01-04T20:51:25.613Z,6.03
2023-01-04T20:53:55.409Z,6.06
2023-01-04T20:56:28.460Z,6.16
2023-01-04T20:58:57.157Z,6.24
2023-01-04T21:01:25.652Z,6.19
2023-01-04T21:03:53.432Z,6.20
2023-01-04T21:06:23.348Z,6.24
2023-01-04T21:08:52.654Z,6.17
2023-01-04T21:11:21.024Z,6.23
2023-01-04T21:13:50.345Z,6.13
2023-01-04T21:16:18.184Z,6.07
2023-01-04T21:18:45.365Z,6.19
2023-01-04T21:21:16.024Z,6.14
2023-01-04T21:23:45.611Z,6.23
2023-01-04T21:26:19.233Z,6.40
2023-01-04T21:28:46.774Z,6.23
2023-01-04T21:31:24.152Z,6.25
2023-01-04T21:33:53.393Z,6.24
2023-01-04T21:36:23.673Z,6.17
2023-01-04T21:38:52.663Z,6.24
2023-01-04T21:41:25.121Z,6.27
2023-01-04T21:43:54.091Z,6.25
2023-01-04T21:46:22.225Z,6.28
2023-01-04T21:48:55.446Z,6.37
2023-01-04T21:51:23.075Z,6.41
2023-01-04T21:53:50.320Z,6.35
2023-01-04T21:56:20.160Z,6.38
2023-01-04T21:58:47.438Z,6.42
2023-01-04T22:01:20.793Z,6.53
2023-01-04T22:03:48.265Z,6.55
2023-01-04T22:06:15.903Z,6.57
2023-01-04T22:08:46.823Z,6.58
2023-01-04T22:11:15.661Z,6.67
2023-01-04T22:13:43.265Z,6.62
2023-01-04T22:16:13.942Z,6.64
2023-01-04T22:18:41.429Z,6.57
2023-01-04T22:21:12.336Z,6.62
2023-01-04T22:23:39.789Z,6.47
2023-01-04T22:26:07.655Z,6.39
2023-01-04T22:28:37.136Z,6.41
2023-01-04T22:31:07.379Z,6.36
2023-01-04T22:33:35.983Z,6.54
2023-01-04T22:36:09.978Z,6.53
2023-01-04T22:38:41.291Z,6.54
2023-01-04T22:41:11.899Z,6.57
2023-01-04T22:43:39.629Z,6.58
2023-01-04T22:46:08.989Z,6.53
2023-01-04T22:48:36.192Z,6.46
2023-01-04T22:51:12.826Z,6.39
2023-01-04T22:53:41.153Z,6.29
2023-01-04T22:56:21.429Z,6.29
2023-01-04T22:58:55.233Z,6.08
2023-01-04T23:01:26.387Z,6.14
2023-01-04T23:03:54.940Z,6.06
2023-01-04T23:06:24.125Z,6.10
2023-01-04T23:08:59.434Z,6.16
2023-01-04T23:11:29.247Z,6.05
2023-01-04T23:13:56.978Z,6.19
2023-01-04T23:16:31.470Z,6.22
2023-01-04T23:19:01.346Z,6.18
2023-01-04T23:21:29.932Z,6.18
2023-01-04T23:23:57.445Z,6.17
2023-01-04T23:26:29.774Z,6.16
2023-01-04T23:29:04.287Z,6.23
2023-01-04T23:31:33.320Z,6.24
2023-01-04T23:34:03.422Z,6.33
2023-01-04T23:36:37.387Z,6.20
2023-01-04T23:39:11.526Z,6.19
2023-01-04T23:41:45.779Z,6.15
2023-01-04T23:46:54.567Z,6.13
2023-01-04T23:49:23.533Z,6.02
2023-01-04T23:51:51.700Z,5.99
2023-01-04T23:54:19.486Z,6.04
2023-01-04T23:56:46.662Z,5.99
2023-01-04T23:59:14.587Z,5.92
